sensor_id;sensor_type;location;lat;lon;timestamp;P1;durP1;ratioP1;P2;durP2;ratioP2
76259;SDS011;65076;52.362;6.588;2023-06-22T00:00:30;11.63;;;8.38;;
76259;SDS011;65076;52.362;6.588;2023-06-22T00:02:58;10.65;;;8.73;;
76259;SDS011;65076;52.362;6.588;2023-06-22T00:05:26;10.25;;;7.97;;
76259;SDS011;65076;52.362;6.588;2023-06-22T00:07:54;11.90;;;8.38;;
76259;SDS011;65076;52.362;6.588;2023-06-22T00:10:22;8.73;;;7.60;;
76259;SDS011;65076;52.362;6.588;2023-06-22T00:12:51;10.40;;;7.93;;
76259;SDS011;65076;52.362;6.588;2023-06-22T00:15:19;10.63;;;8.45;;
76259;SDS011;65076;52.362;6.588;2023-06-22T00:17:48;9.60;;;7.72;;
76259;SDS011;65076;52.362;6.588;2023-06-22T00:20:17;9.88;;;7.85;;
76259;SDS011;65076;52.362;6.588;2023-06-22T00:22:45;9.90;;;8.38;;
76259;SDS011;65076;52.362;6.588;2023-06-22T00:25:14;12.00;;;7.95;;
76259;SDS011;65076;52.362;6.588;2023-06-22T00:27:42;9.85;;;8.43;;
76259;SDS011;65076;52.362;6.588;2023-06-22T00:30:12;11.32;;;8.52;;
76259;SDS011;65076;52.362;6.588;2023-06-22T00:32:41;11.10;;;8.77;;
76259;SDS011;65076;52.362;6.588;2023-06-22T00:35:09;12.13;;;9.82;;
76259;SDS011;65076;52.362;6.588;2023-06-22T00:37:38;13.18;;;9.32;;
76259;SDS011;65076;52.362;6.588;2023-06-22T00:40:08;10.55;;;9.00;;
76259;SDS011;65076;52.362;6.588;2023-06-22T00:42:38;11.90;;;7.90;;
76259;SDS011;65076;52.362;6.588;2023-06-22T00:45:06;12.27;;;9.65;;
76259;SDS011;65076;52.362;6.588;2023-06-22T00:47:36;12.27;;;10.23;;
76259;SDS011;65076;52.362;6.588;2023-06-22T00:50:06;12.52;;;9.50;;
76259;SDS011;65076;52.362;6.588;2023-06-22T00:52:36;12.85;;;9.70;;
76259;SDS011;65076;52.362;6.588;2023-06-22T00:55:09;12.70;;;9.40;;
76259;SDS011;65076;52.362;6.588;2023-06-22T00:57:37;10.68;;;9.07;;
76259;SDS011;65076;52.362;6.588;2023-06-22T01:00:06;12.57;;;10.02;;
76259;SDS011;65076;52.362;6.588;2023-06-22T01:02:39;11.75;;;9.60;;
76259;SDS011;65076;52.362;6.588;2023-06-22T01:05:07;15.10;;;10.70;;
76259;SDS011;65076;52.362;6.588;2023-06-22T01:07:38;13.32;;;10.75;;
76259;SDS011;65076;52.362;6.588;2023-06-22T01:10:16;14.38;;;11.10;;
76259;SDS011;65076;52.362;6.588;2023-06-22T01:12:53;18.15;;;11.93;;
76259;SDS011;65076;52.362;6.588;2023-06-22T01:15:29;17.92;;;12.70;;
76259;SDS011;65076;52.362;6.588;2023-06-22T01:18:06;14.73;;;11.23;;
76259;SDS011;65076;52.362;6.588;2023-06-22T01:20:37;18.88;;;12.43;;
76259;SDS011;65076;52.362;6.588;2023-06-22T01:23:09;15.40;;;11.93;;
76259;SDS011;65076;52.362;6.588;2023-06-22T01:25:53;18.05;;;14.25;;
76259;SDS011;65076;52.362;6.588;2023-06-22T01:28:39;19.27;;;14.98;;
76259;SDS011;65076;52.362;6.588;2023-06-22T01:31:12;19.58;;;14.40;;
76259;SDS011;65076;52.362;6.588;2023-06-22T01:33:45;21.65;;;15.23;;
76259;SDS011;65076;52.362;6.588;2023-06-22T01:36:19;24.65;;;15.52;;
76259;SDS011;65076;52.362;6.588;2023-06-22T01:38:49;19.38;;;14.90;;
76259;SDS011;65076;52.362;6.588;2023-06-22T01:41:19;19.33;;;14.57;;
76259;SDS011;65076;52.362;6.588;2023-06-22T01:43:50;19.67;;;14.30;;
76259;SDS011;65076;52.362;6.588;2023-06-22T01:46:19;20.08;;;14.73;;
76259;SDS011;65076;52.362;6.588;2023-06-22T01:51:18;23.83;;;17.50;;
76259;SDS011;65076;52.362;6.588;2023-06-22T01:53:46;23.00;;;16.73;;
76259;SDS011;65076;52.362;6.588;2023-06-22T01:56:15;23.33;;;17.33;;
76259;SDS011;65076;52.362;6.588;2023-06-22T02:01:20;22.27;;;15.82;;
76259;SDS011;65076;52.362;6.588;2023-06-22T02:04:01;22.80;;;17.25;;
76259;SDS011;65076;52.362;6.588;2023-06-22T02:06:38;22.88;;;16.40;;
76259;SDS011;65076;52.362;6.588;2023-06-22T02:09:11;28.50;;;20.02;;
76259;SDS011;65076;52.362;6.588;2023-06-22T02:11:44;27.92;;;20.15;;
76259;SDS011;65076;52.362;6.588;2023-06-22T02:14:16;28.23;;;19.90;;
76259;SDS011;65076;52.362;6.588;2023-06-22T02:16:45;26.08;;;19.73;;
76259;SDS011;65076;52.362;6.588;2023-06-22T02:19:14;30.48;;;20.98;;
76259;SDS011;65076;52.362;6.588;2023-06-22T02:21:45;31.02;;;22.13;;
76259;SDS011;65076;52.362;6.588;2023-06-22T02:24:13;33.33;;;22.63;;
76259;SDS011;65076;52.362;6.588;2023-06-22T02:26:41;35.38;;;23.13;;
76259;SDS011;65076;52.362;6.588;2023-06-22T02:29:12;32.20;;;22.60;;
76259;SDS011;65076;52.362;6.588;2023-06-22T02:31:41;36.30;;;24.00;;
76259;SDS011;65076;52.362;6.588;2023-06-22T02:34:09;37.10;;;24.50;;
76259;SDS011;65076;52.362;6.588;2023-06-22T02:36:44;38.70;;;26.73;;
76259;SDS011;65076;52.362;6.588;2023-06-22T02:39:18;37.58;;;26.40;;
76259;SDS011;65076;52.362;6.588;2023-06-22T02:41:48;35.55;;;26.65;;
76259;SDS011;65076;52.362;6.588;2023-06-22T02:44:17;41.97;;;26.30;;
76259;SDS011;65076;52.362;6.588;2023-06-22T02:49:16;39.28;;;27.70;;
76259;SDS011;65076;52.362;6.588;2023-06-22T02:51:45;41.05;;;29.60;;
76259;SDS011;65076;52.362;6.588;2023-06-22T02:54:15;38.13;;;26.75;;
76259;SDS011;65076;52.362;6.588;2023-06-22T02:56:43;36.80;;;26.58;;
76259;SDS011;65076;52.362;6.588;2023-06-22T02:59:11;39.63;;;28.05;;
76259;SDS011;65076;52.362;6.588;2023-06-22T03:01:39;37.33;;;27.10;;
76259;SDS011;65076;52.362;6.588;2023-06-22T03:04:09;38.17;;;26.70;;
76259;SDS011;65076;52.362;6.588;2023-06-22T03:06:37;41.28;;;29.25;;
76259;SDS011;65076;52.362;6.588;2023-06-22T03:11:35;40.33;;;27.25;;
76259;SDS011;65076;52.362;6.588;2023-06-22T03:14:03;37.65;;;27.88;;
76259;SDS011;65076;52.362;6.588;2023-06-22T03:16:31;41.38;;;29.40;;
76259;SDS011;65076;52.362;6.588;2023-06-22T03:19:00;42.92;;;28.38;;
76259;SDS011;65076;52.362;6.588;2023-06-22T03:21:29;49.90;;;31.98;;
76259;SDS011;65076;52.362;6.588;2023-06-22T03:23:58;47.67;;;30.98;;
76259;SDS011;65076;52.362;6.588;2023-06-22T03:26:26;46.25;;;31.48;;
76259;SDS011;65076;52.362;6.588;2023-06-22T03:28:54;46.10;;;31.63;;
76259;SDS011;65076;52.362;6.588;2023-06-22T03:31:22;47.40;;;32.75;;
76259;SDS011;65076;52.362;6.588;2023-06-22T03:33:51;53.83;;;34.80;;
76259;SDS011;65076;52.362;6.588;2023-06-22T03:36:19;50.92;;;33.88;;
76259;SDS011;65076;52.362;6.588;2023-06-22T03:38:50;52.92;;;33.22;;
76259;SDS011;65076;52.362;6.588;2023-06-22T03:41:19;50.63;;;32.47;;
76259;SDS011;65076;52.362;6.588;2023-06-22T03:43:47;53.33;;;34.55;;
76259;SDS011;65076;52.362;6.588;2023-06-22T03:46:15;49.92;;;32.78;;
76259;SDS011;65076;52.362;6.588;2023-06-22T03:48:43;48.88;;;31.77;;
76259;SDS011;65076;52.362;6.588;2023-06-22T03:51:11;47.75;;;30.92;;
76259;SDS011;65076;52.362;6.588;2023-06-22T03:53:39;48.67;;;31.17;;
76259;SDS011;65076;52.362;6.588;2023-06-22T03:56:08;46.03;;;32.15;;
76259;SDS011;65076;52.362;6.588;2023-06-22T03:58:36;47.70;;;30.10;;
76259;SDS011;65076;52.362;6.588;2023-06-22T04:01:09;44.97;;;31.10;;
76259;SDS011;65076;52.362;6.588;2023-06-22T04:03:38;48.42;;;31.98;;
76259;SDS011;65076;52.362;6.588;2023-06-22T04:06:06;50.35;;;31.90;;
76259;SDS011;65076;52.362;6.588;2023-06-22T04:08:34;45.05;;;29.33;;
76259;SDS011;65076;52.362;6.588;2023-06-22T04:11:02;45.15;;;31.00;;
76259;SDS011;65076;52.362;6.588;2023-06-22T04:13:32;43.80;;;31.13;;
76259;SDS011;65076;52.362;6.588;2023-06-22T04:16:00;46.08;;;32.35;;
76259;SDS011;65076;52.362;6.588;2023-06-22T04:18:28;46.13;;;31.10;;
76259;SDS011;65076;52.362;6.588;2023-06-22T04:20:56;46.72;;;30.90;;
76259;SDS011;65076;52.362;6.588;2023-06-22T04:23:24;45.78;;;29.40;;
76259;SDS011;65076;52.362;6.588;2023-06-22T04:25:52;43.33;;;30.45;;
76259;SDS011;65076;52.362;6.588;2023-06-22T04:28:22;42.08;;;28.90;;
76259;SDS011;65076;52.362;6.588;2023-06-22T04:30:54;42.78;;;29.38;;
76259;SDS011;65076;52.362;6.588;2023-06-22T04:33:24;44.58;;;28.83;;
76259;SDS011;65076;52.362;6.588;2023-06-22T04:35:52;42.88;;;30.00;;
76259;SDS011;65076;52.362;6.588;2023-06-22T04:38:20;42.83;;;28.73;;
76259;SDS011;65076;52.362;6.588;2023-06-22T04:40:48;43.38;;;29.30;;
76259;SDS011;65076;52.362;6.588;2023-06-22T04:43:17;43.65;;;30.02;;
76259;SDS011;65076;52.362;6.588;2023-06-22T04:45:45;41.08;;;28.55;;
76259;SDS011;65076;52.362;6.588;2023-06-22T04:48:20;39.88;;;28.13;;
76259;SDS011;65076;52.362;6.588;2023-06-22T04:50:48;42.78;;;27.65;;
76259;SDS011;65076;52.362;6.588;2023-06-22T04:53:16;36.50;;;26.17;;
76259;SDS011;65076;52.362;6.588;2023-06-22T04:55:44;36.67;;;25.80;;
76259;SDS011;65076;52.362;6.588;2023-06-22T04:58:15;36.80;;;26.60;;
76259;SDS011;65076;52.362;6.588;2023-06-22T05:00:46;33.30;;;23.45;;
76259;SDS011;65076;52.362;6.588;2023-06-22T05:03:17;34.35;;;24.85;;
76259;SDS011;65076;52.362;6.588;2023-06-22T05:05:47;32.45;;;23.77;;
76259;SDS011;65076;52.362;6.588;2023-06-22T05:08:15;29.98;;;21.98;;
76259;SDS011;65076;52.362;6.588;2023-06-22T05:10:44;30.67;;;23.90;;
76259;SDS011;65076;52.362;6.588;2023-06-22T05:13:30;27.85;;;22.33;;
76259;SDS011;65076;52.362;6.588;2023-06-22T05:15:58;27.05;;;22.05;;
76259;SDS011;65076;52.362;6.588;2023-06-22T05:18:29;28.80;;;22.42;;
76259;SDS011;65076;52.362;6.588;2023-06-22T05:21:00;27.42;;;21.15;;
76259;SDS011;65076;52.362;6.588;2023-06-22T05:23:28;30.27;;;23.77;;
76259;SDS011;65076;52.362;6.588;2023-06-22T05:25:56;26.42;;;21.33;;
76259;SDS011;65076;52.362;6.588;2023-06-22T05:28:24;23.85;;;20.00;;
76259;SDS011;65076;52.362;6.588;2023-06-22T05:30:53;27.25;;;19.33;;
76259;SDS011;65076;52.362;6.588;2023-06-22T05:33:21;27.80;;;20.65;;
76259;SDS011;65076;52.362;6.588;2023-06-22T05:35:49;27.05;;;20.63;;
76259;SDS011;65076;52.362;6.588;2023-06-22T05:38:19;24.55;;;18.65;;
76259;SDS011;65076;52.362;6.588;2023-06-22T05:40:48;28.00;;;20.63;;
76259;SDS011;65076;52.362;6.588;2023-06-22T05:43:16;24.95;;;19.23;;
76259;SDS011;65076;52.362;6.588;2023-06-22T05:45:44;23.63;;;18.13;;
76259;SDS011;65076;52.362;6.588;2023-06-22T05:48:12;24.48;;;17.50;;
76259;SDS011;65076;52.362;6.588;2023-06-22T05:50:40;20.75;;;16.77;;
76259;SDS011;65076;52.362;6.588;2023-06-22T05:53:15;22.15;;;18.15;;
76259;SDS011;65076;52.362;6.588;2023-06-22T05:55:44;20.30;;;16.02;;
76259;SDS011;65076;52.362;6.588;2023-06-22T05:58:13;19.67;;;14.90;;
76259;SDS011;65076;52.362;6.588;2023-06-22T06:00:44;17.17;;;13.82;;
76259;SDS011;65076;52.362;6.588;2023-06-22T06:03:13;18.60;;;15.05;;
76259;SDS011;65076;52.362;6.588;2023-06-22T06:05:43;19.13;;;15.43;;
76259;SDS011;65076;52.362;6.588;2023-06-22T06:08:12;20.88;;;15.02;;
76259;SDS011;65076;52.362;6.588;2023-06-22T06:10:57;14.25;;;12.65;;
76259;SDS011;65076;52.362;6.588;2023-06-22T06:13:25;15.75;;;13.32;;
76259;SDS011;65076;52.362;6.588;2023-06-22T06:15:53;14.80;;;12.93;;
76259;SDS011;65076;52.362;6.588;2023-06-22T06:18:21;15.00;;;12.60;;
76259;SDS011;65076;52.362;6.588;2023-06-22T06:20:49;14.52;;;12.43;;
76259;SDS011;65076;52.362;6.588;2023-06-22T06:23:17;14.23;;;12.80;;
76259;SDS011;65076;52.362;6.588;2023-06-22T06:25:45;13.48;;;12.13;;
76259;SDS011;65076;52.362;6.588;2023-06-22T06:28:14;13.98;;;11.48;;
76259;SDS011;65076;52.362;6.588;2023-06-22T06:30:49;14.75;;;10.75;;
76259;SDS011;65076;52.362;6.588;2023-06-22T06:33:18;11.00;;;9.90;;
76259;SDS011;65076;52.362;6.588;2023-06-22T06:38:29;11.82;;;10.15;;
76259;SDS011;65076;52.362;6.588;2023-06-22T06:43:48;9.30;;;8.35;;
76259;SDS011;65076;52.362;6.588;2023-06-22T06:46:22;10.38;;;8.02;;
76259;SDS011;65076;52.362;6.588;2023-06-22T06:48:50;13.15;;;7.97;;
76259;SDS011;65076;52.362;6.588;2023-06-22T06:51:18;9.13;;;7.93;;
76259;SDS011;65076;52.362;6.588;2023-06-22T06:53:46;28.95;;;8.80;;
76259;SDS011;65076;52.362;6.588;2023-06-22T06:56:14;13.07;;;7.65;;
76259;SDS011;65076;52.362;6.588;2023-06-22T06:58:43;9.27;;;7.78;;
76259;SDS011;65076;52.362;6.588;2023-06-22T07:01:13;7.90;;;7.10;;
76259;SDS011;65076;52.362;6.588;2023-06-22T07:03:43;9.38;;;6.90;;
76259;SDS011;65076;52.362;6.588;2023-06-22T07:06:12;9.25;;;6.90;;
76259;SDS011;65076;52.362;6.588;2023-06-22T07:08:42;9.35;;;7.18;;
76259;SDS011;65076;52.362;6.588;2023-06-22T07:11:18;6.72;;;5.82;;
76259;SDS011;65076;52.362;6.588;2023-06-22T07:13:47;9.80;;;5.63;;
76259;SDS011;65076;52.362;6.588;2023-06-22T07:16:16;7.40;;;6.30;;
76259;SDS011;65076;52.362;6.588;2023-06-22T07:18:44;6.93;;;5.75;;
76259;SDS011;65076;52.362;6.588;2023-06-22T07:21:12;8.93;;;6.47;;
76259;SDS011;65076;52.362;6.588;2023-06-22T07:23:40;8.18;;;6.70;;
76259;SDS011;65076;52.362;6.588;2023-06-22T07:28:38;8.10;;;6.22;;
76259;SDS011;65076;52.362;6.588;2023-06-22T07:31:07;8.23;;;6.57;;
76259;SDS011;65076;52.362;6.588;2023-06-22T07:33:36;6.95;;;6.25;;
76259;SDS011;65076;52.362;6.588;2023-06-22T07:36:05;7.60;;;6.35;;
76259;SDS011;65076;52.362;6.588;2023-06-22T07:38:34;7.63;;;6.70;;
76259;SDS011;65076;52.362;6.588;2023-06-22T07:41:02;8.13;;;6.50;;
76259;SDS011;65076;52.362;6.588;2023-06-22T07:43:32;10.57;;;7.30;;
76259;SDS011;65076;52.362;6.588;2023-06-22T07:46:00;6.82;;;5.82;;
76259;SDS011;65076;52.362;6.588;2023-06-22T07:51:10;9.43;;;6.88;;
76259;SDS011;65076;52.362;6.588;2023-06-22T07:53:39;7.47;;;6.53;;
76259;SDS011;65076;52.362;6.588;2023-06-22T07:58:53;8.35;;;6.82;;
76259;SDS011;65076;52.362;6.588;2023-06-22T08:01:24;7.75;;;6.28;;
76259;SDS011;65076;52.362;6.588;2023-06-22T08:06:55;8.57;;;6.53;;
76259;SDS011;65076;52.362;6.588;2023-06-22T08:09:23;7.68;;;6.45;;
76259;SDS011;65076;52.362;6.588;2023-06-22T08:11:51;10.23;;;7.70;;
76259;SDS011;65076;52.362;6.588;2023-06-22T08:14:19;8.85;;;7.28;;
76259;SDS011;65076;52.362;6.588;2023-06-22T08:16:47;8.05;;;6.40;;
76259;SDS011;65076;52.362;6.588;2023-06-22T08:19:15;7.78;;;6.70;;
76259;SDS011;65076;52.362;6.588;2023-06-22T08:21:44;7.78;;;6.13;;
76259;SDS011;65076;52.362;6.588;2023-06-22T08:24:27;10.05;;;6.22;;
76259;SDS011;65076;52.362;6.588;2023-06-22T08:27:06;8.35;;;6.30;;
76259;SDS011;65076;52.362;6.588;2023-06-22T08:29:36;13.15;;;7.03;;
76259;SDS011;65076;52.362;6.588;2023-06-22T08:32:04;8.43;;;6.25;;
76259;SDS011;65076;52.362;6.588;2023-06-22T08:34:33;7.30;;;6.50;;
76259;SDS011;65076;52.362;6.588;2023-06-22T08:37:03;7.90;;;6.15;;
76259;SDS011;65076;52.362;6.588;2023-06-22T08:39:32;9.00;;;6.25;;
76259;SDS011;65076;52.362;6.588;2023-06-22T08:44:29;7.15;;;5.93;;
76259;SDS011;65076;52.362;6.588;2023-06-22T08:46:57;11.50;;;7.20;;
76259;SDS011;65076;52.362;6.588;2023-06-22T08:49:32;10.40;;;6.97;;
76259;SDS011;65076;52.362;6.588;2023-06-22T08:52:00;11.40;;;6.95;;
76259;SDS011;65076;52.362;6.588;2023-06-22T08:54:30;10.95;;;6.50;;
76259;SDS011;65076;52.362;6.588;2023-06-22T08:57:16;7.38;;;6.07;;
76259;SDS011;65076;52.362;6.588;2023-06-22T08:59:44;8.25;;;6.38;;
76259;SDS011;65076;52.362;6.588;2023-06-22T09:02:12;7.90;;;6.80;;
76259;SDS011;65076;52.362;6.588;2023-06-22T09:04:40;8.77;;;6.38;;
76259;SDS011;65076;52.362;6.588;2023-06-22T09:07:08;9.55;;;6.93;;
76259;SDS011;65076;52.362;6.588;2023-06-22T09:09:40;7.60;;;6.18;;
76259;SDS011;65076;52.362;6.588;2023-06-22T09:12:08;9.05;;;6.45;;
76259;SDS011;65076;52.362;6.588;2023-06-22T09:17:05;9.25;;;7.15;;
76259;SDS011;65076;52.362;6.588;2023-06-22T09:19:33;7.80;;;6.65;;
76259;SDS011;65076;52.362;6.588;2023-06-22T09:22:01;10.45;;;7.03;;
76259;SDS011;65076;52.362;6.588;2023-06-22T09:24:29;8.23;;;7.40;;
76259;SDS011;65076;52.362;6.588;2023-06-22T09:26:58;9.73;;;8.18;;
76259;SDS011;65076;52.362;6.588;2023-06-22T09:29:28;11.13;;;7.57;;
76259;SDS011;65076;52.362;6.588;2023-06-22T09:32:06;8.10;;;6.95;;
76259;SDS011;65076;52.362;6.588;2023-06-22T09:34:35;9.88;;;7.32;;
76259;SDS011;65076;52.362;6.588;2023-06-22T09:37:06;11.50;;;6.07;;
76259;SDS011;65076;52.362;6.588;2023-06-22T09:39:34;9.85;;;6.20;;
76259;SDS011;65076;52.362;6.588;2023-06-22T09:42:04;8.40;;;7.07;;
76259;SDS011;65076;52.362;6.588;2023-06-22T09:44:33;7.03;;;6.32;;
76259;SDS011;65076;52.362;6.588;2023-06-22T09:47:01;8.63;;;6.38;;
76259;SDS011;65076;52.362;6.588;2023-06-22T09:49:30;8.88;;;7.05;;
76259;SDS011;65076;52.362;6.588;2023-06-22T09:52:13;9.02;;;6.63;;
76259;SDS011;65076;52.362;6.588;2023-06-22T09:54:41;8.45;;;6.53;;
76259;SDS011;65076;52.362;6.588;2023-06-22T09:57:11;7.78;;;6.88;;
76259;SDS011;65076;52.362;6.588;2023-06-22T09:59:39;10.32;;;6.97;;
76259;SDS011;65076;52.362;6.588;2023-06-22T10:02:09;8.27;;;6.10;;
76259;SDS011;65076;52.362;6.588;2023-06-22T10:04:38;8.93;;;6.75;;
76259;SDS011;65076;52.362;6.588;2023-06-22T10:09:35;11.38;;;7.55;;
76259;SDS011;65076;52.362;6.588;2023-06-22T10:12:14;10.30;;;7.22;;
76259;SDS011;65076;52.362;6.588;2023-06-22T10:14:42;8.60;;;7.38;;
76259;SDS011;65076;52.362;6.588;2023-06-22T10:17:11;8.68;;;7.45;;
76259;SDS011;65076;52.362;6.588;2023-06-22T10:19:39;8.20;;;7.20;;
76259;SDS011;65076;52.362;6.588;2023-06-22T10:22:07;9.48;;;7.32;;
76259;SDS011;65076;52.362;6.588;2023-06-22T10:24:35;9.90;;;7.25;;
76259;SDS011;65076;52.362;6.588;2023-06-22T10:29:54;8.63;;;6.95;;
76259;SDS011;65076;52.362;6.588;2023-06-22T10:32:23;9.20;;;7.03;;
76259;SDS011;65076;52.362;6.588;2023-06-22T10:34:51;7.22;;;6.15;;
76259;SDS011;65076;52.362;6.588;2023-06-22T10:37:19;9.73;;;7.10;;
76259;SDS011;65076;52.362;6.588;2023-06-22T10:39:48;8.02;;;5.60;;
76259;SDS011;65076;52.362;6.588;2023-06-22T10:42:16;9.70;;;6.70;;
76259;SDS011;65076;52.362;6.588;2023-06-22T10:44:45;7.63;;;6.72;;
76259;SDS011;65076;52.362;6.588;2023-06-22T10:47:14;8.98;;;6.50;;
76259;SDS011;65076;52.362;6.588;2023-06-22T10:49:42;8.68;;;6.78;;
76259;SDS011;65076;52.362;6.588;2023-06-22T10:52:10;7.28;;;6.55;;
76259;SDS011;65076;52.362;6.588;2023-06-22T10:54:41;10.20;;;6.63;;
76259;SDS011;65076;52.362;6.588;2023-06-22T10:57:09;7.95;;;6.38;;
76259;SDS011;65076;52.362;6.588;2023-06-22T10:59:37;9.52;;;6.55;;
76259;SDS011;65076;52.362;6.588;2023-06-22T11:02:06;8.38;;;6.20;;
76259;SDS011;65076;52.362;6.588;2023-06-22T11:04:34;10.90;;;7.35;;
76259;SDS011;65076;52.362;6.588;2023-06-22T11:07:03;10.38;;;7.63;;
76259;SDS011;65076;52.362;6.588;2023-06-22T11:09:36;11.90;;;6.78;;
76259;SDS011;65076;52.362;6.588;2023-06-22T11:12:05;13.32;;;7.72;;
76259;SDS011;65076;52.362;6.588;2023-06-22T11:14:34;9.20;;;7.38;;
76259;SDS011;65076;52.362;6.588;2023-06-22T11:17:02;7.93;;;6.75;;
76259;SDS011;65076;52.362;6.588;2023-06-22T11:22:02;9.32;;;7.63;;
76259;SDS011;65076;52.362;6.588;2023-06-22T11:24:31;12.15;;;7.88;;
76259;SDS011;65076;52.362;6.588;2023-06-22T11:26:59;8.82;;;7.75;;
76259;SDS011;65076;52.362;6.588;2023-06-22T11:29:28;9.10;;;8.13;;
76259;SDS011;65076;52.362;6.588;2023-06-22T11:32:03;10.32;;;7.22;;
76259;SDS011;65076;52.362;6.588;2023-06-22T11:34:37;10.73;;;7.32;;
76259;SDS011;65076;52.362;6.588;2023-06-22T11:37:06;9.85;;;7.65;;
76259;SDS011;65076;52.362;6.588;2023-06-22T11:39:34;8.30;;;7.00;;
76259;SDS011;65076;52.362;6.588;2023-06-22T11:42:13;9.80;;;8.02;;
76259;SDS011;65076;52.362;6.588;2023-06-22T11:44:41;17.30;;;7.65;;
76259;SDS011;65076;52.362;6.588;2023-06-22T11:47:26;11.15;;;7.60;;
76259;SDS011;65076;52.362;6.588;2023-06-22T11:49:55;10.52;;;6.38;;
76259;SDS011;65076;52.362;6.588;2023-06-22T11:52:23;10.60;;;8.45;;
76259;SDS011;65076;52.362;6.588;2023-06-22T11:54:53;8.63;;;6.95;;
76259;SDS011;65076;52.362;6.588;2023-06-22T12:00:22;9.77;;;7.15;;
76259;SDS011;65076;52.362;6.588;2023-06-22T12:02:55;9.25;;;7.05;;
76259;SDS011;65076;52.362;6.588;2023-06-22T12:05:27;8.30;;;7.03;;
76259;SDS011;65076;52.362;6.588;2023-06-22T12:07:55;8.95;;;6.13;;
76259;SDS011;65076;52.362;6.588;2023-06-22T12:13:13;8.65;;;6.80;;
76259;SDS011;65076;52.362;6.588;2023-06-22T12:18:54;8.82;;;6.32;;
76259;SDS011;65076;52.362;6.588;2023-06-22T12:21:23;10.55;;;5.78;;
76259;SDS011;65076;52.362;6.588;2023-06-22T12:23:51;7.47;;;5.63;;
76259;SDS011;65076;52.362;6.588;2023-06-22T12:26:19;8.15;;;6.35;;
76259;SDS011;65076;52.362;6.588;2023-06-22T12:28:48;6.57;;;4.82;;
76259;SDS011;65076;52.362;6.588;2023-06-22T12:31:16;7.78;;;5.68;;
76259;SDS011;65076;52.362;6.588;2023-06-22T12:33:44;7.47;;;5.60;;
76259;SDS011;65076;52.362;6.588;2023-06-22T12:36:12;9.85;;;6.53;;
76259;SDS011;65076;52.362;6.588;2023-06-22T12:41:32;10.55;;;6.00;;
76259;SDS011;65076;52.362;6.588;2023-06-22T12:44:04;8.05;;;7.05;;
76259;SDS011;65076;52.362;6.588;2023-06-22T12:46:32;6.85;;;6.10;;
76259;SDS011;65076;52.362;6.588;2023-06-22T12:49:04;7.22;;;6.28;;
76259;SDS011;65076;52.362;6.588;2023-06-22T12:51:32;8.00;;;6.38;;
76259;SDS011;65076;52.362;6.588;2023-06-22T12:54:00;9.00;;;5.90;;
76259;SDS011;65076;52.362;6.588;2023-06-22T12:59:38;8.82;;;6.70;;
76259;SDS011;65076;52.362;6.588;2023-06-22T13:02:13;9.50;;;6.95;;
76259;SDS011;65076;52.362;6.588;2023-06-22T13:04:41;7.85;;;7.03;;
76259;SDS011;65076;52.362;6.588;2023-06-22T13:07:09;7.93;;;6.78;;
76259;SDS011;65076;52.362;6.588;2023-06-22T13:09:40;8.35;;;7.50;;
76259;SDS011;65076;52.362;6.588;2023-06-22T13:12:13;10.80;;;7.68;;
76259;SDS011;65076;52.362;6.588;2023-06-22T13:14:48;9.15;;;7.85;;
76259;SDS011;65076;52.362;6.588;2023-06-22T13:17:16;10.77;;;8.32;;
76259;SDS011;65076;52.362;6.588;2023-06-22T13:19:58;13.75;;;9.75;;
76259;SDS011;65076;52.362;6.588;2023-06-22T13:22:27;10.30;;;8.30;;
76259;SDS011;65076;52.362;6.588;2023-06-22T13:24:58;12.38;;;9.40;;
76259;SDS011;65076;52.362;6.588;2023-06-22T13:27:29;11.60;;;9.00;;
76259;SDS011;65076;52.362;6.588;2023-06-22T13:29:58;12.77;;;10.20;;
76259;SDS011;65076;52.362;6.588;2023-06-22T13:32:26;13.02;;;10.40;;
76259;SDS011;65076;52.362;6.588;2023-06-22T13:34:54;12.52;;;10.50;;
76259;SDS011;65076;52.362;6.588;2023-06-22T13:37:22;12.68;;;11.00;;
76259;SDS011;65076;52.362;6.588;2023-06-22T13:39:50;13.68;;;11.75;;
76259;SDS011;65076;52.362;6.588;2023-06-22T13:42:18;13.88;;;10.88;;
76259;SDS011;65076;52.362;6.588;2023-06-22T13:44:47;12.30;;;11.00;;
76259;SDS011;65076;52.362;6.588;2023-06-22T13:49:43;16.08;;;12.02;;
76259;SDS011;65076;52.362;6.588;2023-06-22T13:52:11;16.30;;;12.20;;
76259;SDS011;65076;52.362;6.588;2023-06-22T13:54:39;17.17;;;13.15;;
76259;SDS011;65076;52.362;6.588;2023-06-22T13:57:07;16.70;;;12.90;;
76259;SDS011;65076;52.362;6.588;2023-06-22T13:59:35;15.20;;;12.82;;
76259;SDS011;65076;52.362;6.588;2023-06-22T14:02:05;16.60;;;14.07;;
76259;SDS011;65076;52.362;6.588;2023-06-22T14:04:33;19.15;;;14.02;;
76259;SDS011;65076;52.362;6.588;2023-06-22T14:07:01;19.55;;;15.02;;
76259;SDS011;65076;52.362;6.588;2023-06-22T14:09:30;16.35;;;14.45;;
76259;SDS011;65076;52.362;6.588;2023-06-22T14:11:58;19.58;;;15.68;;
76259;SDS011;65076;52.362;6.588;2023-06-22T14:14:32;17.42;;;14.55;;
76259;SDS011;65076;52.362;6.588;2023-06-22T14:17:00;21.88;;;14.65;;
76259;SDS011;65076;52.362;6.588;2023-06-22T14:19:30;19.13;;;13.60;;
76259;SDS011;65076;52.362;6.588;2023-06-22T14:21:58;17.52;;;14.30;;
76259;SDS011;65076;52.362;6.588;2023-06-22T14:24:26;18.08;;;15.18;;
76259;SDS011;65076;52.362;6.588;2023-06-22T14:26:56;17.60;;;15.50;;
76259;SDS011;65076;52.362;6.588;2023-06-22T14:29:24;17.48;;;15.27;;
76259;SDS011;65076;52.362;6.588;2023-06-22T14:31:53;19.58;;;15.63;;
76259;SDS011;65076;52.362;6.588;2023-06-22T14:34:36;16.40;;;14.23;;
76259;SDS011;65076;52.362;6.588;2023-06-22T14:37:05;18.52;;;15.07;;
76259;SDS011;65076;52.362;6.588;2023-06-22T14:39:35;20.75;;;14.75;;
76259;SDS011;65076;52.362;6.588;2023-06-22T14:47:53;15.55;;;12.95;;
76259;SDS011;65076;52.362;6.588;2023-06-22T14:50:26;17.23;;;13.98;;
76259;SDS011;65076;52.362;6.588;2023-06-22T14:52:54;15.48;;;13.77;;
76259;SDS011;65076;52.362;6.588;2023-06-22T14:55:22;16.45;;;13.23;;
76259;SDS011;65076;52.362;6.588;2023-06-22T15:00:44;15.80;;;12.75;;
76259;SDS011;65076;52.362;6.588;2023-06-22T15:03:12;16.75;;;12.80;;
76259;SDS011;65076;52.362;6.588;2023-06-22T15:05:46;17.17;;;13.40;;
76259;SDS011;65076;52.362;6.588;2023-06-22T15:08:14;15.27;;;13.52;;
76259;SDS011;65076;52.362;6.588;2023-06-22T15:10:42;18.00;;;13.60;;
76259;SDS011;65076;52.362;6.588;2023-06-22T15:13:10;16.27;;;13.02;;
76259;SDS011;65076;52.362;6.588;2023-06-22T15:15:39;16.58;;;14.63;;
76259;SDS011;65076;52.362;6.588;2023-06-22T15:18:07;15.48;;;12.50;;
76259;SDS011;65076;52.362;6.588;2023-06-22T15:20:35;16.35;;;14.20;;
76259;SDS011;65076;52.362;6.588;2023-06-22T15:23:05;14.57;;;13.07;;
76259;SDS011;65076;52.362;6.588;2023-06-22T15:25:34;16.77;;;12.57;;
76259;SDS011;65076;52.362;6.588;2023-06-22T15:30:42;15.40;;;13.05;;
76259;SDS011;65076;52.362;6.588;2023-06-22T15:33:14;16.45;;;13.18;;
76259;SDS011;65076;52.362;6.588;2023-06-22T15:35:43;16.58;;;13.40;;
76259;SDS011;65076;52.362;6.588;2023-06-22T15:38:12;16.60;;;13.77;;
76259;SDS011;65076;52.362;6.588;2023-06-22T15:40:41;14.13;;;12.57;;
76259;SDS011;65076;52.362;6.588;2023-06-22T15:43:09;16.38;;;12.95;;
76259;SDS011;65076;52.362;6.588;2023-06-22T15:45:39;14.65;;;12.50;;
76259;SDS011;65076;52.362;6.588;2023-06-22T15:48:07;15.95;;;12.60;;
76259;SDS011;65076;52.362;6.588;2023-06-22T15:50:35;14.35;;;12.55;;
76259;SDS011;65076;52.362;6.588;2023-06-22T15:53:04;13.10;;;11.70;;